Time;durP1;ratioP1;P1;durP2;ratioP2;P2;SDS_P1;SDS_P2;PMS_P1;PMS_P2;Temp;Humidity;BMP_temperature;BMP_pressure;BME280_temperature;BME280_humidity;BME280_pressure;Samples;Min_cycle;Max_cycle;Signal;HPM_P1;HPM_P2
2021/09/04 00:02:11;;;;;;;4.57;2.73;;;14.30;99.90;;;;;;4916260;29;20651;-78
2021/09/04 00:04:38;;;;;;;4.87;2.97;;;14.30;99.90;;;;;;4916160;28;20731;-78
2021/09/04 00:07:04;;;;;;;5.60;3.70;;;14.20;99.90;;;;;;4931591;28;20687;-78
2021/09/04 00:09:32;;;;;;;4.23;3.20;;;14.20;99.90;;;;;;4918204;29;20690;-78
2021/09/04 00:12:00;;;;;;;5.87;2.60;;;14.20;99.90;;;;;;4917515;29;20616;-79
2021/09/04 00:14:26;;;;;;;5.20;3.20;;;14.20;99.90;;;;;;4913743;28;20635;-79
2021/09/04 00:16:54;;;;;;;3.90;3.07;;;14.10;99.90;;;;;;4918758;29;20652;-79
2021/09/04 00:19:20;;;;;;;4.37;2.80;;;14.10;99.90;;;;;;4920183;29;20670;-78
2021/09/04 00:21:45;;;;;;;4.67;3.17;;;14.00;99.90;;;;;;4932031;28;20664;-78
2021/09/04 00:24:13;;;;;;;4.37;3.20;;;14.00;99.90;;;;;;4920235;29;20212;-78
2021/09/04 00:26:41;;;;;;;4.37;2.90;;;14.00;99.90;;;;;;4921863;28;20275;-79
2021/09/04 00:29:07;;;;;;;3.70;2.70;;;14.00;99.90;;;;;;4914155;29;20679;-78
2021/09/04 00:31:32;;;;;;;4.17;3.03;;;14.00;99.90;;;;;;4918279;29;20632;-79
2021/09/04 00:33:58;;;;;;;6.30;2.80;;;14.00;99.90;;;;;;4919821;29;20203;-78
2021/09/04 00:36:23;;;;;;;4.67;3.20;;;14.00;99.90;;;;;;4920589;28;20606;-78
2021/09/04 00:38:52;;;;;;;3.33;3.03;;;13.90;99.90;;;;;;4918495;29;20196;-78
2021/09/04 00:41:19;;;;;;;5.87;3.50;;;13.90;99.90;;;;;;4919807;29;20617;-78
2021/09/04 00:43:47;;;;;;;6.93;3.80;;;13.90;99.90;;;;;;4916549;29;20651;-78
2021/09/04 00:46:13;;;;;;;3.93;3.00;;;13.90;99.90;;;;;;4918563;28;20651;-78
2021/09/04 00:48:39;;;;;;;6.30;3.30;;;13.80;99.90;;;;;;4922506;29;21199;-79
2021/09/04 00:51:04;;;;;;;5.40;3.67;;;13.80;99.90;;;;;;4918671;29;20498;-78
2021/09/04 00:53:31;;;;;;;5.73;3.67;;;13.70;99.90;;;;;;4911492;29;20247;-79
2021/09/04 00:56:00;;;;;;;4.90;3.10;;;13.70;99.90;;;;;;4912569;29;21541;-79
2021/09/04 00:58:25;;;;;;;6.60;3.53;;;13.60;99.90;;;;;;4916054;29;20691;-78
2021/09/04 01:00:53;;;;;;;6.30;3.60;;;13.60;99.90;;;;;;4916854;29;20744;-78
2021/09/04 01:03:19;;;;;;;4.50;2.90;;;13.70;99.90;;;;;;4915653;29;21350;-78
2021/09/04 01:05:48;;;;;;;6.03;3.10;;;13.70;99.90;;;;;;4918688;28;21537;-78
2021/09/04 01:08:13;;;;;;;8.70;3.70;;;13.60;99.90;;;;;;4917994;29;20798;-79
2021/09/04 01:10:52;;;;;;;4.83;3.50;;;13.60;99.90;;;;;;4916121;29;20702;-78
2021/09/04 01:13:21;;;;;;;5.67;4.00;;;13.60;99.90;;;;;;4919434;29;20200;-79
2021/09/04 01:15:47;;;;;;;5.10;3.57;;;13.70;99.90;;;;;;4915231;28;20660;-77
2021/09/04 01:18:13;;;;;;;6.50;3.53;;;13.70;99.90;;;;;;4929225;28;20742;-78
2021/09/04 01:20:39;;;;;;;9.30;3.77;;;13.60;99.90;;;;;;4912327;29;21204;-79
2021/09/04 01:23:10;;;;;;;4.50;3.33;;;13.60;99.90;;;;;;4917908;29;21530;-78
2021/09/04 01:25:40;;;;;;;4.77;3.30;;;13.60;99.90;;;;;;4913020;28;20278;-78
2021/09/04 01:28:06;;;;;;;5.50;3.30;;;13.60;99.90;;;;;;4933210;28;20691;-79
2021/09/04 01:30:33;;;;;;;5.70;2.97;;;13.60;99.90;;;;;;4921419;29;20636;-78
2021/09/04 01:32:59;;;;;;;6.87;3.63;;;13.60;99.90;;;;;;4908986;29;20589;-78
2021/09/04 01:35:26;;;;;;;6.60;3.00;;;13.60;99.90;;;;;;4909324;28;20806;-79
2021/09/04 01:37:54;;;;;;;4.87;3.17;;;13.60;99.90;;;;;;4915339;29;20780;-78
2021/09/04 01:40:20;;;;;;;6.63;3.30;;;13.60;99.90;;;;;;4921855;29;20798;-78
2021/09/04 01:42:47;;;;;;;6.00;3.47;;;13.70;99.90;;;;;;4915297;29;20748;-78
2021/09/04 01:45:16;;;;;;;3.10;2.80;;;13.70;99.90;;;;;;4915354;28;21196;-79
2021/09/04 01:47:41;;;;;;;5.67;3.23;;;13.70;99.90;;;;;;4928448;29;21285;-78
2021/09/04 01:50:13;;;;;;;5.87;3.13;;;13.70;99.90;;;;;;4908097;29;20751;-78
2021/09/04 01:52:41;;;;;;;6.03;3.30;;;13.70;99.90;;;;;;4919432;29;21782;-79
2021/09/04 01:55:08;;;;;;;4.17;3.03;;;13.70;99.90;;;;;;4913365;28;20678;-79
2021/09/04 01:57:37;;;;;;;3.90;3.30;;;13.70;99.90;;;;;;4924009;29;20660;-78
2021/09/04 02:00:08;;;;;;;4.27;2.90;;;13.70;99.90;;;;;;4917833;29;20664;-78
2021/09/04 02:02:36;;;;;;;4.93;3.40;;;13.70;99.90;;;;;;4915935;29;21152;-78
2021/09/04 02:05:06;;;;;;;7.43;3.87;;;13.80;99.90;;;;;;4916246;28;20714;-78
2021/09/04 02:07:31;;;;;;;5.10;3.17;;;13.80;99.90;;;;;;4916940;29;21266;-78
2021/09/04 02:09:57;;;;;;;6.63;3.40;;;13.80;99.90;;;;;;4919140;29;20753;-78
2021/09/04 02:12:23;;;;;;;5.53;3.43;;;13.80;99.90;;;;;;4911443;29;20573;-78
2021/09/04 02:14:50;;;;;;;4.03;3.07;;;13.80;99.90;;;;;;4917885;28;20259;-77
2021/09/04 02:17:18;;;;;;;6.23;3.40;;;13.80;99.90;;;;;;4926105;28;20721;-78
2021/09/04 02:19:43;;;;;;;4.10;3.13;;;13.90;99.90;;;;;;4916491;29;20650;-78
2021/09/04 02:22:09;;;;;;;4.27;3.30;;;13.90;99.90;;;;;;4951874;29;20651;-78
2021/09/04 02:24:37;;;;;;;3.27;2.90;;;13.90;99.90;;;;;;4924160;28;20686;-78
2021/09/04 02:27:02;;;;;;;5.23;3.60;;;13.90;99.90;;;;;;4918780;29;20208;-77
2021/09/04 02:29:31;;;;;;;6.57;3.43;;;14.00;99.90;;;;;;4917551;29;21051;-78
2021/09/04 02:31:59;;;;;;;5.23;3.70;;;13.90;99.90;;;;;;4917697;29;20215;-78
2021/09/04 02:34:27;;;;;;;4.80;3.27;;;14.00;99.90;;;;;;4923067;28;20639;-78
2021/09/04 02:36:53;;;;;;;8.73;3.83;;;14.00;99.90;;;;;;4921402;29;20695;-78
2021/09/04 02:39:21;;;;;;;5.03;3.00;;;14.00;99.90;;;;;;4923522;29;20636;-78
2021/09/04 02:41:47;;;;;;;4.93;3.13;;;14.00;99.90;;;;;;4921022;29;20300;-78
2021/09/04 02:44:15;;;;;;;5.37;3.57;;;14.10;99.90;;;;;;4922447;29;20743;-78
2021/09/04 02:46:43;;;;;;;9.57;3.73;;;14.10;99.90;;;;;;4922091;28;20300;-78
2021/09/04 02:49:08;;;;;;;4.73;3.03;;;14.10;99.90;;;;;;4920362;29;20635;-79
2021/09/04 02:51:35;;;;;;;5.53;3.27;;;14.10;99.90;;;;;;4925154;29;20713;-78
2021/09/04 02:54:01;;;;;;;5.27;3.40;;;14.10;99.90;;;;;;4921211;29;20211;-77
2021/09/04 02:56:26;;;;;;;4.63;3.90;;;14.10;99.90;;;;;;4932286;28;20663;-79
2021/09/04 02:58:54;;;;;;;4.50;3.27;;;14.20;99.90;;;;;;4920214;29;20215;-77
2021/09/04 03:01:19;;;;;;;5.70;2.90;;;14.20;99.90;;;;;;4932807;29;20584;-78
2021/09/04 03:03:45;;;;;;;4.87;3.13;;;14.20;99.90;;;;;;4923298;29;20712;-78
2021/09/04 03:06:10;;;;;;;5.67;3.70;;;14.20;99.90;;;;;;4922689;28;20312;-78
2021/09/04 03:08:41;;;;;;;3.43;3.03;;;14.30;99.90;;;;;;4920699;29;20197;-78
2021/09/04 03:11:06;;;;;;;3.67;3.10;;;14.30;99.90;;;;;;4924995;29;20180;-78
2021/09/04 03:13:33;;;;;;;8.40;3.33;;;14.30;99.90;;;;;;4936741;29;20632;-78
2021/09/04 03:15:59;;;;;;;4.70;3.13;;;14.30;99.90;;;;;;4919275;28;20243;-78
2021/09/04 03:18:27;;;;;;;4.87;3.30;;;14.30;99.90;;;;;;4922569;29;20974;-79
2021/09/04 03:20:52;;;;;;;4.40;3.40;;;14.30;99.90;;;;;;4912249;29;20279;-78
2021/09/04 03:23:18;;;;;;;5.27;3.90;;;14.30;99.90;;;;;;4916725;29;21147;-78
2021/09/04 03:25:46;;;;;;;5.87;3.93;;;14.30;99.90;;;;;;4922088;28;20229;-77
2021/09/04 03:28:11;;;;;;;5.27;4.10;;;14.30;99.90;;;;;;4917461;29;20207;-78
2021/09/04 03:30:37;;;;;;;7.60;3.90;;;14.40;99.90;;;;;;4917518;29;20646;-78
2021/09/04 03:33:03;;;;;;;3.80;3.50;;;14.40;99.90;;;;;;4923046;29;20215;-78
2021/09/04 03:35:28;;;;;;;4.60;3.83;;;14.40;99.90;;;;;;4916761;28;20224;-78
2021/09/04 03:37:54;;;;;;;4.03;3.63;;;14.40;99.90;;;;;;4921916;29;20246;-78
2021/09/04 03:40:22;;;;;;;5.33;3.93;;;14.40;99.90;;;;;;4919201;29;20681;-78
2021/09/04 03:42:48;;;;;;;5.20;4.70;;;14.50;99.90;;;;;;4916054;29;20239;-77
2021/09/04 03:45:18;;;;;;;7.70;4.63;;;14.50;99.90;;;;;;4930305;28;20651;-79
2021/09/04 03:47:44;;;;;;;5.97;5.20;;;14.50;99.90;;;;;;4920348;29;20234;-78
2021/09/04 03:50:10;;;;;;;7.17;4.47;;;14.50;99.90;;;;;;4936426;28;21045;-78
2021/09/04 03:52:35;;;;;;;8.03;5.50;;;14.50;99.90;;;;;;4919030;29;20257;-79
2021/09/04 03:55:03;;;;;;;6.40;4.63;;;14.60;99.90;;;;;;4912445;29;20663;-78
2021/09/04 03:57:31;;;;;;;5.03;4.43;;;14.50;99.90;;;;;;4919526;29;21476;-78
2021/09/04 03:59:59;;;;;;;5.23;4.73;;;14.60;99.90;;;;;;4917781;29;21203;-79
2021/09/04 04:02:25;;;;;;;7.97;4.40;;;14.60;99.90;;;;;;4916584;29;20651;-77
2021/09/04 04:04:50;;;;;;;5.17;4.67;;;14.60;99.90;;;;;;4914900;29;20967;-78
2021/09/04 04:07:16;;;;;;;5.33;4.83;;;14.60;99.90;;;;;;4937353;28;20224;-78
2021/09/04 04:09:41;;;;;;;5.23;4.73;;;14.70;99.90;;;;;;4919120;29;20948;-78
2021/09/04 04:12:09;;;;;;;5.50;5.00;;;14.70;99.90;;;;;;4919657;29;20628;-77
2021/09/04 04:14:34;;;;;;;8.30;4.93;;;14.70;99.90;;;;;;4917903;28;20208;-78
2021/09/04 04:17:05;;;;;;;6.47;4.63;;;14.70;99.90;;;;;;4918650;29;21465;-78
2021/09/04 04:19:33;;;;;;;5.80;5.20;;;14.70;99.90;;;;;;4935243;29;20754;-78
2021/09/04 04:21:59;;;;;;;5.83;5.33;;;14.70;99.90;;;;;;4932372;29;20624;-77
2021/09/04 04:24:27;;;;;;;9.30;5.60;;;14.70;99.90;;;;;;4915511;28;20631;-78
2021/09/04 04:26:53;;;;;;;8.37;5.17;;;14.80;99.90;;;;;;4918555;29;20231;-78
2021/09/04 04:29:18;;;;;;;7.13;5.33;;;14.80;99.90;;;;;;4918850;29;20662;-77
2021/09/04 04:31:46;;;;;;;5.93;5.23;;;14.80;99.90;;;;;;4933988;29;20192;-78
2021/09/04 04:34:12;;;;;;;6.97;4.40;;;14.80;99.90;;;;;;4930658;29;20184;-77
2021/09/04 04:36:37;;;;;;;5.00;4.50;;;14.80;99.90;;;;;;4917033;28;20660;-78
2021/09/04 04:39:03;;;;;;;11.50;5.40;;;14.80;99.90;;;;;;4916566;29;20199;-77
2021/09/04 04:41:31;;;;;;;6.13;5.27;;;14.90;99.90;;;;;;4918371;29;20219;-78
2021/09/04 04:43:57;;;;;;;5.30;4.80;;;14.90;99.90;;;;;;4919248;29;20180;-78
2021/09/04 04:46:25;;;;;;;6.30;4.87;;;14.90;99.90;;;;;;4914463;28;20687;-78
2021/09/04 04:48:55;;;;;;;5.97;5.03;;;14.90;99.90;;;;;;4915954;29;20304;-78
2021/09/04 04:51:20;;;;;;;5.87;5.27;;;14.90;99.90;;;;;;4924926;29;20620;-78
2021/09/04 04:53:46;;;;;;;7.07;5.67;;;14.90;99.90;;;;;;4921703;29;20644;-78
2021/09/04 04:56:11;;;;;;;6.03;5.30;;;15.00;99.90;;;;;;4924952;28;20298;-77
2021/09/04 04:58:37;;;;;;;6.73;4.90;;;15.00;99.90;;;;;;4919654;29;20185;-78
2021/09/04 05:01:05;;;;;;;6.53;5.30;;;15.00;99.90;;;;;;4926676;29;20327;-77
2021/09/04 05:03:32;;;;;;;10.37;5.10;;;15.00;99.90;;;;;;4935785;29;20315;-78
2021/09/04 05:05:59;;;;;;;8.27;5.20;;;15.00;99.90;;;;;;4911935;29;20762;-78
2021/09/04 05:08:28;;;;;;;6.97;4.70;;;15.10;99.90;;;;;;4917789;29;20663;-78
2021/09/04 05:10:54;;;;;;;5.77;5.17;;;15.00;99.90;;;;;;4920805;29;20712;-78
2021/09/04 05:13:21;;;;;;;7.37;5.47;;;15.10;99.90;;;;;;4924755;29;20767;-78
2021/09/04 05:15:47;;;;;;;8.77;6.43;;;15.10;99.90;;;;;;4944829;28;20284;-77
2021/09/04 05:18:15;;;;;;;6.90;5.30;;;15.10;99.90;;;;;;4936901;29;20652;-78
2021/09/04 05:20:44;;;;;;;8.70;5.40;;;15.10;99.90;;;;;;4913800;29;20696;-78
2021/09/04 05:23:14;;;;;;;8.60;5.57;;;15.10;99.90;;;;;;4918531;29;20642;-78
2021/09/04 05:25:40;;;;;;;5.97;5.37;;;15.20;99.90;;;;;;4915301;28;20707;-78
2021/09/04 05:28:05;;;;;;;9.07;6.30;;;15.20;99.90;;;;;;4923727;29;21278;-78
2021/09/04 05:30:31;;;;;;;7.97;5.70;;;15.20;99.90;;;;;;4940236;28;20295;-78
2021/09/04 05:32:59;;;;;;;8.00;6.27;;;15.20;99.90;;;;;;4917719;29;20279;-78
2021/09/04 05:35:32;;;;;;;9.37;5.80;;;15.20;99.90;;;;;;4924264;28;21072;-78
2021/09/04 05:38:02;;;;;;;8.63;5.70;;;15.20;99.90;;;;;;4921957;29;21096;-78
2021/09/04 05:40:27;;;;;;;8.27;6.73;;;15.30;99.90;;;;;;4922563;29;20646;-78
2021/09/04 05:42:53;;;;;;;7.77;6.40;;;15.20;99.90;;;;;;4924271;29;20624;-78
2021/09/04 05:45:21;;;;;;;10.67;6.60;;;15.20;99.90;;;;;;4924876;28;20355;-78
2021/09/04 05:47:46;;;;;;;10.30;7.13;;;15.30;99.90;;;;;;4923484;29;20248;-78
2021/09/04 05:50:17;;;;;;;11.90;6.67;;;15.30;99.90;;;;;;4921691;29;21191;-78
2021/09/04 05:52:42;;;;;;;9.00;6.20;;;15.30;99.90;;;;;;4935368;29;20289;-78
2021/09/04 05:55:08;;;;;;;9.37;7.07;;;15.30;99.90;;;;;;4919868;29;20971;-78
2021/09/04 05:57:34;;;;;;;9.67;6.50;;;15.40;99.90;;;;;;4924922;29;20675;-78
2021/09/04 05:59:59;;;;;;;8.60;6.80;;;15.40;99.90;;;;;;4927790;29;20278;-79
2021/09/04 06:02:25;;;;;;;10.00;7.47;;;15.50;99.90;;;;;;4924323;29;20311;-78
2021/09/04 06:04:50;;;;;;;7.83;6.53;;;15.50;99.90;;;;;;4924826;28;20784;-78
2021/09/04 06:07:16;;;;;;;12.63;6.93;;;15.50;99.90;;;;;;4911311;29;20667;-79
2021/09/04 06:09:41;;;;;;;10.30;7.50;;;15.50;99.90;;;;;;4926867;29;20747;-79
2021/09/04 06:12:07;;;;;;;9.77;6.77;;;15.60;99.90;;;;;;4924331;29;20200;-78
2021/09/04 06:14:32;;;;;;;8.63;7.27;;;15.60;99.90;;;;;;4926615;28;20684;-78
2021/09/04 06:16:58;;;;;;;11.57;7.07;;;15.60;99.90;;;;;;4923985;29;20271;-79
2021/09/04 06:19:23;;;;;;;11.77;7.17;;;15.60;99.90;;;;;;4925241;29;20215;-78
2021/09/04 06:21:49;;;;;;;9.43;7.30;;;15.70;99.90;;;;;;4939421;28;20224;-79
2021/09/04 06:24:14;;;;;;;9.27;7.10;;;15.70;99.90;;;;;;4922185;29;20267;-79
2021/09/04 06:26:40;;;;;;;9.27;6.83;;;15.70;99.90;;;;;;4923756;28;20291;-80
2021/09/04 06:29:05;;;;;;;8.60;7.47;;;15.80;99.90;;;;;;4939765;28;20347;-80
2021/09/04 06:31:31;;;;;;;8.67;7.30;;;15.70;99.90;;;;;;4932988;29;20230;-80
2021/09/04 06:33:57;;;;;;;10.53;8.57;;;15.80;99.90;;;;;;4926639;29;20302;-79
2021/09/04 06:36:22;;;;;;;10.00;6.90;;;15.80;99.90;;;;;;4922736;28;20327;-78
2021/09/04 06:38:50;;;;;;;8.37;6.63;;;15.90;99.90;;;;;;4925583;29;20791;-78
2021/09/04 06:41:16;;;;;;;9.50;7.83;;;16.00;99.90;;;;;;4925044;29;20231;-76
2021/09/04 06:43:41;;;;;;;10.30;7.97;;;16.00;99.90;;;;;;4925159;29;20620;-77
2021/09/04 06:46:07;;;;;;;11.50;8.03;;;16.10;99.90;;;;;;4919554;28;20322;-77
2021/09/04 06:48:32;;;;;;;10.30;7.07;;;16.10;99.90;;;;;;4922679;29;20188;-77
2021/09/04 06:50:58;;;;;;;11.87;7.37;;;16.10;99.90;;;;;;4924035;29;20248;-77
2021/09/04 06:53:23;;;;;;;10.97;7.30;;;16.20;99.90;;;;;;4927035;29;20200;-76
2021/09/04 06:55:49;;;;;;;10.10;7.53;;;16.10;99.90;;;;;;4918368;28;20239;-77
2021/09/04 06:58:15;;;;;;;13.40;8.00;;;16.20;99.90;;;;;;4922261;29;20249;-77
2021/09/04 07:00:40;;;;;;;11.07;6.93;;;16.20;99.90;;;;;;4923553;29;20212;-79
2021/09/04 07:03:06;;;;;;;11.50;7.77;;;16.30;99.90;;;;;;4915886;29;20300;-77
2021/09/04 07:05:31;;;;;;;10.70;7.70;;;16.30;99.90;;;;;;4916806;28;20319;-78
2021/09/04 07:07:57;;;;;;;10.07;7.00;;;16.40;99.90;;;;;;4918306;29;20208;-77
2021/09/04 07:10:22;;;;;;;9.20;7.40;;;16.40;99.90;;;;;;4913001;29;20197;-78
2021/09/04 07:12:48;;;;;;;13.50;7.20;;;16.40;99.90;;;;;;4908112;29;20204;-77
2021/09/04 07:15:13;;;;;;;13.50;8.00;;;16.50;99.90;;;;;;4912409;29;20661;-77
2021/09/04 07:17:39;;;;;;;12.17;7.47;;;16.60;99.90;;;;;;4922031;29;20219;-77
2021/09/04 07:20:06;;;;;;;9.90;7.93;;;16.60;99.90;;;;;;4923514;29;20274;-78
2021/09/04 07:22:31;;;;;;;11.23;7.63;;;16.60;99.90;;;;;;4920564;29;20271;-77
2021/09/04 07:24:57;;;;;;;11.03;7.70;;;16.60;99.90;;;;;;4911941;29;20624;-77
2021/09/04 07:27:22;;;;;;;11.10;8.03;;;16.70;99.90;;;;;;4905175;29;20242;-78
2021/09/04 07:29:48;;;;;;;9.60;7.63;;;16.70;99.90;;;;;;4918978;29;20374;-78
2021/09/04 07:32:13;;;;;;;10.40;6.80;;;16.80;99.90;;;;;;4926135;29;20275;-77
2021/09/04 07:34:39;;;;;;;9.27;6.77;;;16.80;99.90;;;;;;4921380;28;20203;-77
2021/09/04 07:37:04;;;;;;;7.73;5.60;;;16.80;99.90;;;;;;4935044;28;20220;-78
2021/09/04 07:39:30;;;;;;;9.07;5.90;;;16.90;99.90;;;;;;4926024;29;20447;-77
2021/09/04 07:41:55;;;;;;;9.53;6.50;;;16.90;99.90;;;;;;4924007;29;20311;-78
2021/09/04 07:44:21;;;;;;;9.63;6.47;;;17.00;99.90;;;;;;4919503;28;20362;-77
2021/09/04 07:46:46;;;;;;;8.77;6.10;;;17.00;99.90;;;;;;4925064;29;20212;-77
2021/09/04 07:49:12;;;;;;;8.00;6.10;;;17.10;99.90;;;;;;4930338;29;20673;-78
2021/09/04 07:51:37;;;;;;;8.90;6.30;;;17.20;99.90;;;;;;4924462;29;20231;-78
2021/09/04 07:54:03;;;;;;;7.70;5.50;;;17.30;99.90;;;;;;4925079;29;20572;-78
2021/09/04 07:56:29;;;;;;;9.50;5.93;;;17.20;99.90;;;;;;4922918;29;20247;-78
2021/09/04 07:58:54;;;;;;;9.00;5.83;;;17.20;99.90;;;;;;4926615;29;20192;-78
2021/09/04 08:01:20;;;;;;;7.27;5.40;;;17.20;99.90;;;;;;4937515;28;20215;-77
2021/09/04 08:03:45;;;;;;;7.50;5.90;;;17.30;99.90;;;;;;4941076;28;20196;-78
2021/09/04 08:06:11;;;;;;;7.00;4.90;;;17.50;99.90;;;;;;4935911;29;20208;-76
2021/09/04 08:08:37;;;;;;;5.60;5.10;;;17.50;99.90;;;;;;4943853;28;20615;-77
2021/09/04 08:11:03;;;;;;;5.33;4.83;;;17.60;99.90;;;;;;4944962;29;20196;-78
2021/09/04 08:13:28;;;;;;;11.43;6.10;;;17.70;99.90;;;;;;4958862;29;20624;-78
2021/09/04 08:15:54;;;;;;;8.07;5.80;;;17.80;99.90;;;;;;4930051;29;20663;-78
2021/09/04 08:18:19;;;;;;;7.87;5.50;;;17.90;99.90;;;;;;4928230;29;20216;-77
2021/09/04 08:20:45;;;;;;;6.57;5.87;;;17.90;99.90;;;;;;4936511;28;20227;-78
2021/09/04 08:23:11;;;;;;;7.10;4.93;;;17.90;99.90;;;;;;4924249;29;20660;-77
2021/09/04 08:25:37;;;;;;;11.30;6.80;;;17.90;99.90;;;;;;4928662;28;20700;-77
2021/09/04 08:28:09;;;;;;;8.60;5.47;;;17.90;99.90;;;;;;4917753;29;20275;-78
2021/09/04 08:30:36;;;;;;;5.87;5.00;;;17.90;99.90;;;;;;4928315;29;22775;-77
2021/09/04 08:33:03;;;;;;;6.70;5.37;;;17.90;99.90;;;;;;4926893;29;20711;-77
2021/09/04 08:35:28;;;;;;;7.77;5.77;;;17.90;99.90;;;;;;4919059;28;20644;-78
2021/09/04 08:37:55;;;;;;;7.73;5.40;;;17.90;99.90;;;;;;4927865;29;20919;-78
2021/09/04 08:40:21;;;;;;;8.20;5.13;;;18.00;99.90;;;;;;4927689;29;20672;-77
2021/09/04 08:42:48;;;;;;;5.67;4.67;;;18.00;99.90;;;;;;4918847;29;20624;-76
2021/09/04 08:45:14;;;;;;;6.70;4.33;;;18.10;99.90;;;;;;4924945;28;20718;-77
2021/09/04 08:47:40;;;;;;;7.57;5.57;;;18.20;99.90;;;;;;4932941;28;20704;-78
2021/09/04 08:50:06;;;;;;;7.60;5.97;;;18.40;99.90;;;;;;4926849;29;20815;-77
2021/09/04 08:52:32;;;;;;;7.30;5.60;;;18.60;99.90;;;;;;4925360;29;20859;-78
2021/09/04 08:54:58;;;;;;;7.07;5.60;;;18.60;99.90;;;;;;4922740;28;20628;-77
2021/09/04 08:57:24;;;;;;;7.47;5.63;;;18.70;99.90;;;;;;4927149;29;20212;-77
2021/09/04 08:59:51;;;;;;;9.73;5.97;;;18.70;99.90;;;;;;4928364;29;21800;-78
2021/09/04 09:02:19;;;;;;;8.03;5.70;;;18.80;99.90;;;;;;4921762;29;20215;-78
2021/09/04 09:04:59;;;;;;;11.60;6.30;;;18.80;99.90;;;;;;4918577;28;20643;-78
2021/09/04 09:07:37;;;;;;;9.43;6.50;;;18.80;99.90;;;;;;4926611;29;20761;-77
2021/09/04 09:10:03;;;;;;;7.53;5.97;;;18.80;99.90;;;;;;4927468;29;20624;-77
2021/09/04 09:12:28;;;;;;;6.93;5.63;;;18.80;99.90;;;;;;4927314;29;20627;-78
2021/09/04 09:14:56;;;;;;;5.30;4.80;;;18.80;99.90;;;;;;4931653;28;20235;-79
2021/09/04 09:17:26;;;;;;;8.50;5.97;;;18.70;99.90;;;;;;4927908;29;20216;-79
2021/09/04 09:20:03;;;;;;;8.20;5.73;;;18.80;99.90;;;;;;4931318;29;20624;-79
2021/09/04 09:22:42;;;;;;;6.97;5.60;;;18.80;99.90;;;;;;4942282;28;20635;-80
2021/09/04 09:25:18;;;;;;;9.33;5.57;;;18.80;99.90;;;;;;4930720;28;20632;-79
2021/09/04 09:28:01;;;;;;;6.80;5.40;;;18.80;99.90;;;;;;4928588;29;21069;-79
2021/09/04 09:30:44;;;;;;;7.20;4.93;;;18.80;99.90;;;;;;4943795;28;20639;-79
2021/09/04 09:33:15;;;;;;;11.07;6.50;;;18.80;99.90;;;;;;4942038;28;20671;-79
2021/09/04 09:35:50;;;;;;;8.33;5.70;;;19.00;99.90;;;;;;4928045;29;20700;-79
2021/09/04 09:38:18;;;;;;;6.60;5.67;;;19.00;99.90;;;;;;4927019;29;20678;-80
2021/09/04 09:40:44;;;;;;;7.33;5.47;;;19.00;99.90;;;;;;4944476;29;20707;-79
2021/09/04 09:43:26;;;;;;;8.87;5.07;;;19.00;99.90;;;;;;4929144;29;20631;-79
2021/09/04 09:46:02;;;;;;;7.33;5.37;;;19.00;99.90;;;;;;4929496;28;20632;-79
2021/09/04 09:48:30;;;;;;;6.67;4.90;;;19.10;99.90;;;;;;4930104;29;20688;-79
2021/09/04 09:50:57;;;;;;;9.33;5.83;;;19.10;99.90;;;;;;4931543;29;20706;-79
2021/09/04 09:53:23;;;;;;;6.87;6.13;;;19.10;99.90;;;;;;4927910;29;21195;-79
2021/09/04 09:55:51;;;;;;;5.60;5.00;;;19.10;99.90;;;;;;4926117;29;20978;-79
2021/09/04 09:58:19;;;;;;;7.70;5.90;;;19.10;99.90;;;;;;4936875;29;21211;-79
2021/09/04 10:00:46;;;;;;;6.57;5.30;;;19.10;99.90;;;;;;4926927;29;20648;-79
2021/09/04 10:03:13;;;;;;;6.23;5.30;;;19.00;99.90;;;;;;4931492;29;20696;-79
2021/09/04 10:05:40;;;;;;;7.40;5.37;;;19.10;99.90;;;;;;4927317;28;21320;-79
2021/09/04 10:08:05;;;;;;;5.77;4.87;;;19.20;99.90;;;;;;4942083;28;20737;-79
2021/09/04 10:10:37;;;;;;;7.47;5.30;;;19.20;99.90;;;;;;4932881;29;20685;-79
2021/09/04 10:13:06;;;;;;;7.80;6.13;;;19.20;99.90;;;;;;4930922;29;20215;-79
2021/09/04 10:15:35;;;;;;;7.17;5.60;;;19.30;99.90;;;;;;4927730;29;20660;-79
2021/09/04 10:18:06;;;;;;;5.40;4.90;;;19.20;99.90;;;;;;4945978;28;20727;-79
2021/09/04 10:20:34;;;;;;;8.27;5.43;;;19.30;99.90;;;;;;4928093;29;20718;-79
2021/09/04 10:23:21;;;;;;;7.37;5.60;;;19.20;99.90;;;;;;4929633;29;20631;-79
2021/09/04 10:25:48;;;;;;;7.50;5.50;;;19.20;99.90;;;;;;4921885;29;20838;-80
2021/09/04 10:28:13;;;;;;;6.80;5.03;;;19.20;99.90;;;;;;4927076;29;20648;-79
2021/09/04 10:30:41;;;;;;;5.53;4.93;;;19.20;99.90;;;;;;4929419;29;20635;-79
2021/09/04 10:33:08;;;;;;;6.90;5.23;;;19.30;99.90;;;;;;4930694;29;20209;-80
2021/09/04 10:35:43;;;;;;;9.10;4.90;;;19.40;99.90;;;;;;4923425;28;21211;-79
2021/09/04 10:38:09;;;;;;;7.60;5.67;;;19.40;99.90;;;;;;4930323;29;20808;-79
2021/09/04 10:40:37;;;;;;;8.80;5.73;;;19.40;99.90;;;;;;4929892;29;20684;-79
2021/09/04 10:43:07;;;;;;;5.60;4.70;;;19.40;99.90;;;;;;4930520;29;20607;-78
2021/09/04 10:45:35;;;;;;;9.40;5.60;;;19.40;99.90;;;;;;4925385;28;20762;-79
2021/09/04 10:48:20;;;;;;;8.87;5.20;;;19.50;99.90;;;;;;4929184;29;21095;-79
2021/09/04 10:51:01;;;;;;;5.33;4.83;;;19.50;99.90;;;;;;4929888;29;20624;-79
2021/09/04 10:53:42;;;;;;;8.27;5.40;;;19.60;99.90;;;;;;4932357;29;20670;-79
2021/09/04 10:56:25;;;;;;;7.87;5.20;;;19.70;99.90;;;;;;4928718;29;20644;-79
2021/09/04 10:58:54;;;;;;;8.63;5.40;;;19.70;99.90;;;;;;4932230;29;20639;-79
2021/09/04 11:01:32;;;;;;;6.57;5.00;;;19.80;99.90;;;;;;4935125;29;20721;-79
2021/09/04 11:03:58;;;;;;;5.73;4.50;;;19.80;99.90;;;;;;4937047;29;20627;-80
2021/09/04 11:06:25;;;;;;;6.07;5.20;;;19.90;99.90;;;;;;4959734;29;20642;-80
2021/09/04 11:08:52;;;;;;;5.87;5.27;;;20.00;99.90;;;;;;4961890;29;20216;-80
2021/09/04 11:11:32;;;;;;;6.93;5.07;;;20.20;99.90;;;;;;4933157;29;20619;-79
2021/09/04 11:14:00;;;;;;;5.17;4.30;;;20.20;99.90;;;;;;4934021;29;20592;-79
2021/09/04 11:16:25;;;;;;;5.70;4.07;;;20.30;99.90;;;;;;4931517;28;20647;-79
2021/09/04 11:18:54;;;;;;;4.80;4.10;;;20.30;99.90;;;;;;4930010;29;20687;-79
2021/09/04 11:21:20;;;;;;;5.47;4.30;;;20.40;99.90;;;;;;4931754;29;20216;-79
2021/09/04 11:23:46;;;;;;;5.20;4.17;;;20.50;99.90;;;;;;4943746;28;20972;-79
2021/09/04 11:26:12;;;;;;;4.10;3.70;;;20.70;99.90;;;;;;4932726;28;20643;-79
2021/09/04 11:28:37;;;;;;;4.27;3.80;;;20.80;99.90;;;;;;4930894;29;20628;-79
2021/09/04 11:31:04;;;;;;;5.60;3.80;;;21.00;99.90;;;;;;4937405;29;20246;-79
2021/09/04 11:33:30;;;;;;;6.20;3.37;;;21.10;99.90;;;;;;4930840;29;20307;-79
2021/09/04 11:35:55;;;;;;;7.13;3.70;;;21.20;99.90;;;;;;4931299;29;20647;-79
2021/09/04 11:38:22;;;;;;;4.17;3.70;;;21.40;99.90;;;;;;4928566;29;21422;-80
2021/09/04 11:40:48;;;;;;;5.83;4.27;;;21.60;99.90;;;;;;4946310;29;20211;-79
2021/09/04 11:43:16;;;;;;;4.60;4.10;;;21.70;99.90;;;;;;4931664;29;20736;-79
2021/09/04 11:45:44;;;;;;;6.57;4.03;;;21.80;99.90;;;;;;4932908;28;20647;-79
2021/09/04 11:48:12;;;;;;;4.20;3.70;;;21.80;99.90;;;;;;4930777;29;20707;-79
2021/09/04 11:50:38;;;;;;;5.43;4.10;;;22.00;99.90;;;;;;4933013;29;20656;-79
2021/09/04 11:53:16;;;;;;;4.73;4.20;;;22.10;99.90;;;;;;4931271;29;20656;-79
2021/09/04 11:55:42;;;;;;;4.17;3.73;;;22.20;99.90;;;;;;4930952;28;20565;-79
2021/09/04 11:58:12;;;;;;;4.60;3.77;;;22.20;99.90;;;;;;4930878;29;20648;-79
2021/09/04 12:00:40;;;;;;;3.60;3.30;;;22.20;99.90;;;;;;4932825;29;20216;-80
2021/09/04 12:03:11;;;;;;;4.63;3.70;;;22.10;99.90;;;;;;4929893;29;20643;-79
2021/09/04 12:05:39;;;;;;;5.00;3.60;;;22.10;99.90;;;;;;4930917;28;21298;-80
2021/09/04 12:10:59;;;;;;;4.17;3.43;;;22.40;99.90;;;;;;5876336;23;20676;-80
2021/09/04 12:13:25;;;;;;;5.40;3.63;;;22.60;99.90;;;;;;4970836;28;20738;-78
2021/09/04 12:15:55;;;;;;;3.77;3.43;;;22.50;99.90;;;;;;4966643;28;20658;-78
2021/09/04 12:18:28;;;;;;;4.10;2.97;;;22.50;99.90;;;;;;4970849;28;21259;-78
2021/09/04 12:20:54;;;;;;;4.00;3.60;;;22.50;99.90;;;;;;4952160;28;20657;-78
2021/09/04 12:23:27;;;;;;;3.57;3.20;;;22.60;99.90;;;;;;4948834;28;20698;-78
2021/09/04 12:26:03;;;;;;;3.37;3.07;;;22.40;99.90;;;;;;4961839;28;20641;-78
2021/09/04 12:28:29;;;;;;;5.70;3.27;;;22.30;99.90;;;;;;4964854;28;21556;-76
2021/09/04 12:31:04;;;;;;;4.73;3.00;;;22.30;99.90;;;;;;4953580;28;20627;-77
2021/09/04 12:33:30;;;;;;;3.57;3.00;;;22.20;99.90;;;;;;4951361;28;20333;-76
2021/09/04 12:36:02;;;;;;;3.90;3.50;;;22.10;99.90;;;;;;4953210;28;22774;-77
2021/09/04 12:38:39;;;;;;;4.97;3.40;;;21.80;99.90;;;;;;4952178;28;21302;-76
2021/09/04 12:41:17;;;;;;;4.30;3.10;;;21.90;99.90;;;;;;4950858;28;20670;-76
2021/09/04 12:44:03;;;;;;;6.10;3.60;;;21.90;99.90;;;;;;4954024;28;20684;-79
2021/09/04 12:46:37;;;;;;;3.93;3.43;;;21.90;99.90;;;;;;4956910;28;20669;-75
2021/09/04 12:49:53;;;;;;;6.30;4.07;;;22.10;99.90;;;;;;4947364;28;20622;-75
2021/09/04 12:52:21;;;;;;;4.60;3.57;;;22.40;99.90;;;;;;4858173;29;20638;-75